createdAt,value
2023-04-29T00:01:41.461Z,10.43
2023-04-29T00:04:09.321Z,10.13
2023-04-29T00:06:37.151Z,10.40
2023-04-29T00:09:04.563Z,10.23
2023-04-29T00:11:32.163Z,9.98
2023-04-29T00:13:59.482Z,10.13
2023-04-29T00:16:26.684Z,10.05
2023-04-29T00:18:54.628Z,10.00
2023-04-29T00:21:21.857Z,10.63
2023-04-29T00:23:49.038Z,9.95
2023-04-29T00:26:16.554Z,10.75
2023-04-29T00:28:46.889Z,10.57
2023-04-29T00:31:14.758Z,11.43
2023-04-29T00:33:42.665Z,11.80
2023-04-29T00:36:10.295Z,12.23
2023-04-29T00:38:37.706Z,12.50
2023-04-29T00:41:05.118Z,11.80
2023-04-29T00:43:32.541Z,12.32
2023-04-29T00:45:59.920Z,11.80
2023-04-29T00:48:27.552Z,11.82
2023-04-29T00:50:54.766Z,11.65
2023-04-29T00:53:23.156Z,12.20
2023-04-29T00:55:51.790Z,11.60
2023-04-29T00:58:20.051Z,11.57
2023-04-29T01:00:48.284Z,11.35
2023-04-29T01:03:15.990Z,11.60
2023-04-29T01:05:48.904Z,10.43
2023-04-29T01:08:39.401Z,11.00
2023-04-29T01:11:08.815Z,11.05
2023-04-29T01:13:50.704Z,11.77
2023-04-29T01:16:33.927Z,10.82
2023-04-29T01:21:49.139Z,11.13
2023-04-29T01:24:17.070Z,11.07
2023-04-29T01:26:56.699Z,10.40
2023-04-29T01:30:19.895Z,10.98
2023-04-29T01:32:56.588Z,11.07
2023-04-29T01:35:33.736Z,11.20
2023-04-29T01:38:10.061Z,10.90
2023-04-29T01:40:57.301Z,11.93
2023-04-29T01:43:30.042Z,13.32
2023-04-29T01:46:00.981Z,11.68
2023-04-29T01:48:28.868Z,11.98
2023-04-29T01:50:56.089Z,12.15
2023-04-29T01:53:23.501Z,12.50
2023-04-29T01:55:51.114Z,12.80
2023-04-29T01:58:21.174Z,13.23
2023-04-29T02:01:07.470Z,12.85
2023-04-29T02:03:36.600Z,12.73
2023-04-29T02:06:07.029Z,13.40
2023-04-29T02:08:35.327Z,12.50
2023-04-29T02:11:02.786Z,12.52
2023-04-29T02:13:35.904Z,12.77
2023-04-29T02:16:14.847Z,12.82
2023-04-29T02:18:56.416Z,13.43
2023-04-29T02:21:23.959Z,12.13
2023-04-29T02:23:51.572Z,13.43
2023-04-29T02:26:18.840Z,13.32
2023-04-29T02:28:46.424Z,12.88
2023-04-29T02:31:13.819Z,13.05
2023-04-29T02:33:45.307Z,12.30
2023-04-29T02:36:12.591Z,11.93
2023-04-29T02:38:39.860Z,12.35
2023-04-29T02:41:07.163Z,12.70
2023-04-29T02:43:34.425Z,13.27
2023-04-29T02:46:02.106Z,14.07
2023-04-29T02:48:29.451Z,13.75
2023-04-29T02:50:56.779Z,12.38
2023-04-29T02:53:24.410Z,13.95
2023-04-29T02:55:51.999Z,14.25
2023-04-29T02:58:19.359Z,12.70
2023-04-29T03:00:46.580Z,13.73
2023-04-29T03:03:14.099Z,11.45
2023-04-29T03:05:41.854Z,10.10
2023-04-29T03:08:10.273Z,10.23
2023-04-29T03:10:39.252Z,10.57
2023-04-29T03:13:08.616Z,9.55
2023-04-29T03:15:37.230Z,10.23
2023-04-29T03:18:05.070Z,9.88
2023-04-29T03:20:34.457Z,10.23
2023-04-29T03:23:05.118Z,10.63
2023-04-29T03:25:32.444Z,10.88
2023-04-29T03:27:59.649Z,10.35
2023-04-29T03:30:27.131Z,10.02
2023-04-29T03:32:57.708Z,10.38
2023-04-29T03:35:26.014Z,10.60
2023-04-29T03:38:11.782Z,11.00
2023-04-29T03:40:40.272Z,10.93
2023-04-29T03:43:09.302Z,11.38
2023-04-29T03:45:37.423Z,11.00
2023-04-29T03:48:07.849Z,10.77
2023-04-29T03:50:37.151Z,10.77
2023-04-29T03:53:04.485Z,11.80
2023-04-29T03:55:31.960Z,10.98
2023-04-29T03:57:59.539Z,11.52
2023-04-29T04:00:31.045Z,11.77
2023-04-29T04:03:00.366Z,10.95
2023-04-29T04:05:29.568Z,11.95
2023-04-29T04:08:04.422Z,12.18
2023-04-29T04:10:34.648Z,12.45
2023-04-29T04:13:06.059Z,12.27
2023-04-29T04:15:33.613Z,11.90
2023-04-29T04:18:00.996Z,12.25
2023-04-29T04:20:28.343Z,12.93
2023-04-29T04:22:55.649Z,12.45
2023-04-29T04:25:26.466Z,11.85
2023-04-29T04:27:59.515Z,12.50
2023-04-29T04:30:46.669Z,12.55
2023-04-29T04:33:14.230Z,13.00
2023-04-29T04:35:44.436Z,11.52
2023-04-29T04:38:12.493Z,12.57
2023-04-29T04:40:43.179Z,12.27
2023-04-29T04:43:33.403Z,12.25
2023-04-29T04:46:13.817Z,12.30
2023-04-29T04:48:51.420Z,12.18
2023-04-29T04:51:21.112Z,12.63
2023-04-29T04:53:48.600Z,13.40
2023-04-29T04:56:20.858Z,12.88
2023-04-29T04:58:48.298Z,12.85
2023-04-29T05:01:15.880Z,13.48
2023-04-29T05:03:43.221Z,13.13
2023-04-29T05:06:11.035Z,13.32
2023-04-29T05:08:40.636Z,12.90
2023-04-29T05:11:17.512Z,13.85
2023-04-29T05:13:46.713Z,14.50
2023-04-29T05:16:14.184Z,14.55
2023-04-29T05:18:46.513Z,14.38
2023-04-29T05:21:16.502Z,15.23
2023-04-29T05:23:45.044Z,14.15
2023-04-29T05:26:12.940Z,14.60
2023-04-29T05:28:41.344Z,15.25
2023-04-29T05:31:09.943Z,14.73
2023-04-29T05:33:37.821Z,15.73
2023-04-29T05:36:06.597Z,15.15
2023-04-29T05:38:34.044Z,15.27
2023-04-29T05:41:06.221Z,16.50
2023-04-29T05:43:52.287Z,15.18
2023-04-29T05:46:20.568Z,15.27
2023-04-29T05:48:49.790Z,15.60
2023-04-29T05:51:17.067Z,15.27
2023-04-29T05:53:44.628Z,15.65
2023-04-29T05:56:11.881Z,15.75
2023-04-29T05:58:40.614Z,15.25
2023-04-29T06:01:08.451Z,15.30
2023-04-29T06:03:36.391Z,16.30
2023-04-29T06:06:27.143Z,15.88
2023-04-29T06:09:19.917Z,17.48
2023-04-29T06:11:54.907Z,15.45
2023-04-29T06:14:22.265Z,15.85
2023-04-29T06:16:49.621Z,15.25
2023-04-29T06:19:16.866Z,16.02
2023-04-29T06:21:44.082Z,16.08
2023-04-29T06:24:11.321Z,15.52
2023-04-29T06:26:38.600Z,15.45
2023-04-29T06:29:09.277Z,16.30
2023-04-29T06:31:38.405Z,15.88
2023-04-29T06:34:05.910Z,15.73
2023-04-29T06:36:36.270Z,16.77
2023-04-29T06:39:06.347Z,17.20
2023-04-29T06:41:49.638Z,18.38
2023-04-29T06:44:55.669Z,18.15
2023-04-29T06:47:38.284Z,16.38
2023-04-29T06:50:13.195Z,15.57
2023-04-29T06:52:42.734Z,15.27
2023-04-29T06:55:11.604Z,16.77
2023-04-29T06:57:39.867Z,15.70
2023-04-29T07:00:08.220Z,16.38
2023-04-29T07:02:35.549Z,17.33
2023-04-29T07:05:03.590Z,16.70
2023-04-29T07:07:30.966Z,16.63
2023-04-29T07:09:58.209Z,17.02
2023-04-29T07:12:26.284Z,14.57
2023-04-29T07:14:54.715Z,15.85
2023-04-29T07:17:22.085Z,15.48
2023-04-29T07:19:49.735Z,15.93
2023-04-29T07:22:20.624Z,16.25
2023-04-29T07:24:48.122Z,18.20
2023-04-29T07:27:15.652Z,18.58
2023-04-29T07:29:42.837Z,17.38
2023-04-29T07:32:10.302Z,18.30
2023-04-29T07:34:38.627Z,16.50
2023-04-29T07:37:05.930Z,17.23
2023-04-29T07:39:33.426Z,16.30
2023-04-29T07:42:01.105Z,15.98
2023-04-29T07:44:28.576Z,17.08
2023-04-29T07:46:57.388Z,16.88
2023-04-29T07:49:26.013Z,17.48
2023-04-29T07:51:53.308Z,18.33
2023-04-29T07:54:20.650Z,16.77
2023-04-29T07:56:49.155Z,17.20
2023-04-29T07:59:16.630Z,16.15
2023-04-29T08:01:43.989Z,17.27
2023-04-29T08:04:11.832Z,15.30
2023-04-29T08:06:48.949Z,15.32
2023-04-29T08:09:16.802Z,16.17
2023-04-29T08:11:44.938Z,15.27
2023-04-29T08:14:13.841Z,16.33
2023-04-29T08:16:41.349Z,14.93
2023-04-29T08:19:08.680Z,15.65
2023-04-29T08:21:35.920Z,15.13
2023-04-29T08:24:03.258Z,14.52
2023-04-29T08:26:30.550Z,14.80
2023-04-29T08:28:57.833Z,14.10
2023-04-29T08:31:25.918Z,13.77
2023-04-29T08:33:54.015Z,12.05
2023-04-29T08:36:21.323Z,11.68
2023-04-29T08:38:48.974Z,11.32
2023-04-29T08:41:16.857Z,12.32
2023-04-29T08:43:44.265Z,10.63
2023-04-29T08:46:11.884Z,10.55
2023-04-29T08:48:45.009Z,10.95
2023-04-29T08:51:16.148Z,9.48
2023-04-29T08:53:43.423Z,10.85
2023-04-29T08:56:22.130Z,10.60
2023-04-29T08:58:58.819Z,10.15
2023-04-29T09:01:30.165Z,9.77
2023-04-29T09:04:17.048Z,10.55
2023-04-29T09:06:44.388Z,8.85
2023-04-29T09:09:14.049Z,8.25
2023-04-29T09:11:41.354Z,8.60
2023-04-29T09:14:09.434Z,9.05
2023-04-29T09:16:38.322Z,8.82
2023-04-29T09:19:06.062Z,8.43
2023-04-29T09:21:33.427Z,8.25
2023-04-29T09:24:02.542Z,7.80
2023-04-29T09:26:43.612Z,8.30
2023-04-29T09:29:14.136Z,7.38
2023-04-29T09:31:42.403Z,7.78
2023-04-29T09:34:11.752Z,7.90
2023-04-29T09:36:56.833Z,7.13
2023-04-29T09:39:24.614Z,7.97
2023-04-29T09:41:54.861Z,7.93
2023-04-29T09:44:26.793Z,7.00
2023-04-29T09:46:59.576Z,7.85
2023-04-29T09:49:28.605Z,7.93
2023-04-29T09:51:58.362Z,7.20
2023-04-29T09:54:30.556Z,7.25
2023-04-29T09:56:59.568Z,7.72
2023-04-29T09:59:27.061Z,8.15
2023-04-29T10:01:58.719Z,8.63
2023-04-29T10:04:27.886Z,8.95
2023-04-29T10:06:56.372Z,8.50
2023-04-29T10:09:24.194Z,8.77
2023-04-29T10:11:53.164Z,8.52
2023-04-29T10:14:24.897Z,8.68
2023-04-29T10:17:02.318Z,8.63
2023-04-29T10:19:43.886Z,9.80
2023-04-29T10:22:19.295Z,8.25
2023-04-29T10:24:48.746Z,9.52
2023-04-29T10:27:17.007Z,9.27
2023-04-29T10:29:45.148Z,10.63
2023-04-29T10:32:15.060Z,8.88
2023-04-29T10:34:43.624Z,9.57
2023-04-29T10:37:12.488Z,9.95
2023-04-29T10:39:44.016Z,10.23
2023-04-29T10:42:31.858Z,10.88
2023-04-29T10:45:21.780Z,10.18
2023-04-29T10:48:10.541Z,14.35
2023-04-29T10:50:49.977Z,11.48
2023-04-29T10:53:22.307Z,12.13
2023-04-29T10:55:57.877Z,10.30
2023-04-29T10:58:43.088Z,10.77
2023-04-29T11:01:12.454Z,12.02
2023-04-29T11:04:00.063Z,11.43
2023-04-29T11:06:36.480Z,12.05
2023-04-29T11:09:08.962Z,10.02
2023-04-29T11:11:43.379Z,12.57
2023-04-29T11:14:12.056Z,12.30
2023-04-29T11:16:49.277Z,12.65
2023-04-29T11:19:18.037Z,13.18
2023-04-29T11:21:47.171Z,12.38
2023-04-29T11:24:16.182Z,12.40
2023-04-29T11:26:44.273Z,12.02
2023-04-29T11:29:11.720Z,12.35
2023-04-29T11:31:39.712Z,11.80
2023-04-29T11:34:07.565Z,12.52
2023-04-29T11:36:36.047Z,11.60
2023-04-29T11:39:04.678Z,12.38
2023-04-29T11:41:32.141Z,12.70
2023-04-29T11:44:00.307Z,14.05
2023-04-29T11:46:31.566Z,13.55
2023-04-29T11:49:00.456Z,13.20
2023-04-29T11:51:28.588Z,13.73
2023-04-29T11:53:57.888Z,13.20
2023-04-29T11:56:25.962Z,12.95
2023-04-29T11:58:57.959Z,12.93
2023-04-29T12:01:28.483Z,14.60
2023-04-29T12:04:03.463Z,13.43
2023-04-29T12:06:31.806Z,14.38
2023-04-29T12:09:00.686Z,14.80
2023-04-29T12:11:28.843Z,14.63
2023-04-29T12:13:57.838Z,14.10
2023-04-29T12:16:25.662Z,12.80
2023-04-29T12:18:53.888Z,13.68
2023-04-29T12:21:22.801Z,12.68
2023-04-29T12:23:51.498Z,12.85
2023-04-29T12:26:20.874Z,12.80
2023-04-29T12:28:49.437Z,14.50
2023-04-29T12:31:16.986Z,13.25
2023-04-29T12:33:44.529Z,13.50
2023-04-29T12:36:19.024Z,13.93
2023-04-29T12:38:48.609Z,13.07
2023-04-29T12:41:17.161Z,12.55
2023-04-29T12:43:44.863Z,11.93
2023-04-29T12:46:15.113Z,12.65
2023-04-29T12:48:43.773Z,12.00
2023-04-29T12:51:11.880Z,12.35
2023-04-29T12:53:39.698Z,13.00
2023-04-29T12:56:07.351Z,11.95
2023-04-29T12:58:35.096Z,13.68
2023-04-29T13:01:02.528Z,12.57
2023-04-29T13:03:29.920Z,12.40
2023-04-29T13:05:57.378Z,12.55
2023-04-29T13:08:24.582Z,12.98
2023-04-29T13:10:51.774Z,13.05
2023-04-29T13:13:19.122Z,13.60
2023-04-29T13:15:46.591Z,14.57
2023-04-29T13:18:13.844Z,13.80
2023-04-29T13:20:42.555Z,14.20
2023-04-29T13:23:12.021Z,13.93
2023-04-29T13:25:39.276Z,13.88
2023-04-29T13:28:07.614Z,12.45
2023-04-29T13:30:34.995Z,12.55
2023-04-29T13:33:09.746Z,12.38
2023-04-29T13:35:41.528Z,13.15
2023-04-29T13:38:09.118Z,12.95
2023-04-29T13:40:41.687Z,13.10
2023-04-29T13:43:14.936Z,12.25
2023-04-29T13:45:48.131Z,13.95
2023-04-29T13:48:28.517Z,11.98
2023-04-29T13:54:17.403Z,12.88
2023-04-29T13:59:36.115Z,13.90
2023-04-29T14:02:21.603Z,15.25
2023-04-29T14:04:27.251Z,14.52
2023-04-29T14:06:56.131Z,12.00
2023-04-29T14:09:23.884Z,13.70
2023-04-29T14:11:51.144Z,11.40
2023-04-29T14:14:18.430Z,11.82
2023-04-29T14:16:45.670Z,12.15
2023-04-29T14:19:12.947Z,12.18
2023-04-29T14:21:40.177Z,11.85
2023-04-29T14:24:07.424Z,11.63
2023-04-29T14:26:34.693Z,11.20
2023-04-29T14:29:01.976Z,11.85
2023-04-29T14:31:31.312Z,10.98
2023-04-29T14:33:58.714Z,10.07
2023-04-29T14:36:26.661Z,10.10
2023-04-29T14:38:54.233Z,9.55
2023-04-29T14:41:22.007Z,9.45
2023-04-29T14:43:49.462Z,11.52
2023-04-29T14:46:17.014Z,11.07
2023-04-29T14:48:44.598Z,11.70
2023-04-29T14:51:12.219Z,11.75
2023-04-29T14:53:39.473Z,10.68
2023-04-29T14:56:07.982Z,10.00
2023-04-29T14:58:35.407Z,8.77
2023-04-29T15:01:02.603Z,9.30
2023-04-29T15:03:30.299Z,9.35
2023-04-29T15:05:58.761Z,10.70
2023-04-29T15:08:26.187Z,9.80
2023-04-29T15:10:53.519Z,10.40
2023-04-29T15:13:21.128Z,10.50
2023-04-29T15:15:49.367Z,11.48
2023-04-29T15:18:16.637Z,9.30
2023-04-29T15:20:43.893Z,10.90
2023-04-29T15:23:11.503Z,10.85
2023-04-29T15:25:38.757Z,10.05
2023-04-29T15:28:06.046Z,11.10
2023-04-29T15:30:33.519Z,11.60
2023-04-29T15:33:01.039Z,11.32
2023-04-29T15:35:28.378Z,11.45
2023-04-29T15:37:56.559Z,10.52
2023-04-29T15:40:23.954Z,11.05
2023-04-29T15:42:51.187Z,11.45
2023-04-29T15:45:18.464Z,11.45
2023-04-29T15:47:47.050Z,11.20
2023-04-29T15:50:14.426Z,11.82
2023-04-29T15:52:41.673Z,11.40
2023-04-29T15:55:09.200Z,10.73
2023-04-29T15:57:41.230Z,11.55
2023-04-29T16:00:09.657Z,13.05
2023-04-29T16:02:37.055Z,12.80
2023-04-29T16:05:04.852Z,12.02
2023-04-29T16:07:33.100Z,13.32
2023-04-29T16:10:01.601Z,12.73
2023-04-29T16:12:29.418Z,13.00
2023-04-29T16:14:56.648Z,12.65
2023-04-29T16:17:23.935Z,12.30
2023-04-29T16:19:51.153Z,12.57
2023-04-29T16:22:18.540Z,12.68
2023-04-29T16:24:47.877Z,13.25
2023-04-29T16:27:17.759Z,12.52
2023-04-29T16:29:45.587Z,12.75
2023-04-29T16:32:12.821Z,13.35
2023-04-29T16:34:40.050Z,13.02
2023-04-29T16:37:14.381Z,12.13
2023-04-29T16:39:41.624Z,13.32
2023-04-29T16:42:09.088Z,13.38
2023-04-29T16:44:36.274Z,14.13
2023-04-29T16:47:03.688Z,15.10
2023-04-29T16:49:31.336Z,14.27
2023-04-29T16:51:58.702Z,13.18
2023-04-29T16:54:27.599Z,13.30
2023-04-29T16:56:54.868Z,22.15
2023-04-29T16:59:22.211Z,14.27
2023-04-29T17:01:49.578Z,22.17
2023-04-29T17:04:16.923Z,13.93
2023-04-29T17:06:44.382Z,13.43
2023-04-29T17:09:12.090Z,13.68
2023-04-29T17:11:39.362Z,15.90
2023-04-29T17:14:06.650Z,13.13
2023-04-29T17:16:33.884Z,13.27
2023-04-29T17:19:01.078Z,13.35
2023-04-29T17:21:30.519Z,14.20
2023-04-29T17:23:58.856Z,12.93
2023-04-29T17:26:26.356Z,13.10
2023-04-29T17:28:53.609Z,12.57
2023-04-29T17:31:25.062Z,12.93
2023-04-29T17:34:04.896Z,12.20
2023-04-29T17:36:32.890Z,13.13
2023-04-29T17:39:00.125Z,12.90
2023-04-29T17:41:27.363Z,13.40
2023-04-29T17:43:54.635Z,13.23
2023-04-29T17:46:22.023Z,12.48
2023-04-29T17:48:49.351Z,12.38
2023-04-29T17:51:16.657Z,12.25
2023-04-29T17:53:43.881Z,11.70
2023-04-29T17:56:11.125Z,13.25
2023-04-29T17:58:38.894Z,12.50
2023-04-29T18:01:06.593Z,12.88
2023-04-29T18:03:33.854Z,12.25
2023-04-29T18:06:01.118Z,12.73
2023-04-29T18:08:28.358Z,12.00
2023-04-29T18:10:55.673Z,12.57
2023-04-29T18:13:25.175Z,11.85
2023-04-29T18:15:54.289Z,12.50
2023-04-29T18:18:21.534Z,12.93
2023-04-29T18:20:48.783Z,12.70
2023-04-29T18:23:15.994Z,12.68
2023-04-29T18:25:43.369Z,13.23
2023-04-29T18:28:24.250Z,12.73
2023-04-29T18:30:52.853Z,11.77
2023-04-29T18:33:20.355Z,12.30
2023-04-29T18:35:47.608Z,13.93
2023-04-29T18:38:17.293Z,12.15
2023-04-29T18:40:45.222Z,11.48
2023-04-29T18:43:15.240Z,12.07
2023-04-29T18:45:42.483Z,12.68
2023-04-29T18:48:09.886Z,12.38
2023-04-29T18:50:37.183Z,11.48
2023-04-29T18:53:04.561Z,12.13
2023-04-29T18:55:32.211Z,11.93
2023-04-29T18:57:59.426Z,12.32
2023-04-29T19:00:27.060Z,12.07
2023-04-29T19:02:54.315Z,11.88
2023-04-29T19:05:22.875Z,13.57
2023-04-29T19:07:50.277Z,13.60
2023-04-29T19:10:17.501Z,12.18
2023-04-29T19:12:44.725Z,13.05
2023-04-29T19:15:12.701Z,13.15
2023-04-29T19:17:39.983Z,12.77
2023-04-29T19:20:08.046Z,13.13
2023-04-29T19:22:35.637Z,12.95
2023-04-29T19:25:04.996Z,12.63
2023-04-29T19:27:32.223Z,12.05
2023-04-29T19:29:59.450Z,12.68
2023-04-29T19:32:28.228Z,13.65
2023-04-29T19:34:57.330Z,13.25
2023-04-29T19:37:24.611Z,12.95
2023-04-29T19:39:52.293Z,13.00
2023-04-29T19:42:19.783Z,13.85
2023-04-29T19:44:47.047Z,13.23
2023-04-29T19:47:14.519Z,13.10
2023-04-29T19:49:41.842Z,13.25
2023-04-29T19:52:09.074Z,14.13
2023-04-29T19:54:36.941Z,13.63
2023-04-29T19:57:04.163Z,14.40
2023-04-29T19:59:31.353Z,14.15
2023-04-29T20:01:58.760Z,13.90
2023-04-29T20:04:26.842Z,13.82
2023-04-29T20:06:54.035Z,14.32
2023-04-29T20:09:21.398Z,14.05
2023-04-29T20:11:48.616Z,13.02
2023-04-29T20:14:16.230Z,13.23
2023-04-29T20:16:43.590Z,12.50
2023-04-29T20:19:11.727Z,13.82
2023-04-29T20:21:40.246Z,12.60
2023-04-29T20:24:08.046Z,12.93
2023-04-29T20:26:35.241Z,13.48
2023-04-29T20:29:02.517Z,13.70
2023-04-29T20:31:29.890Z,14.27
2023-04-29T20:33:57.192Z,13.50
2023-04-29T20:36:24.435Z,13.35
2023-04-29T20:38:52.190Z,14.23
2023-04-29T20:41:19.402Z,14.43
2023-04-29T20:43:46.696Z,14.93
2023-04-29T20:46:14.014Z,14.40
2023-04-29T20:48:41.788Z,14.90
2023-04-29T20:51:10.387Z,14.23
2023-04-29T20:53:37.666Z,16.60
2023-04-29T20:56:05.085Z,14.82
2023-04-29T20:58:32.460Z,15.20
2023-04-29T21:00:59.805Z,15.85
2023-04-29T21:03:27.545Z,16.73
2023-04-29T21:05:55.847Z,16.48
2023-04-29T21:08:23.127Z,18.58
2023-04-29T21:10:51.261Z,17.77
2023-04-29T21:13:18.758Z,17.83
2023-04-29T21:15:46.492Z,18.05
2023-04-29T21:18:14.267Z,19.02
2023-04-29T21:20:41.677Z,18.73
2023-04-29T21:23:09.120Z,18.17
2023-04-29T21:25:36.550Z,17.90
2023-04-29T21:28:04.545Z,18.38
2023-04-29T21:30:32.027Z,18.70
2023-04-29T21:32:59.478Z,18.77
2023-04-29T21:35:27.321Z,18.40
2023-04-29T21:37:54.788Z,18.55
2023-04-29T21:40:22.816Z,18.63
2023-04-29T21:42:51.059Z,19.00
2023-04-29T21:45:18.977Z,18.88
2023-04-29T21:47:47.597Z,19.90
2023-04-29T21:50:15.052Z,18.15
2023-04-29T21:52:42.506Z,18.27
2023-04-29T21:55:09.959Z,18.58
2023-04-29T21:57:44.300Z,18.98
2023-04-29T22:00:30.706Z,18.85
2023-04-29T22:02:58.090Z,19.00
2023-04-29T22:05:25.427Z,19.48
2023-04-29T22:07:53.034Z,19.25
2023-04-29T22:10:20.346Z,19.45
2023-04-29T22:12:48.036Z,19.13
2023-04-29T22:15:27.492Z,19.45
2023-04-29T22:17:57.364Z,19.50
2023-04-29T22:20:25.339Z,19.30
2023-04-29T22:22:52.636Z,19.58
2023-04-29T22:25:21.572Z,20.30
2023-04-29T22:27:49.743Z,19.35
2023-04-29T22:30:20.520Z,19.80
2023-04-29T22:32:47.828Z,20.83
2023-04-29T22:35:15.853Z,20.13
2023-04-29T22:37:43.122Z,20.42
2023-04-29T22:40:11.442Z,20.60
2023-04-29T22:42:39.609Z,19.85
2023-04-29T22:45:07.556Z,20.77
2023-04-29T22:47:34.805Z,20.83
2023-04-29T22:50:02.078Z,21.23
2023-04-29T22:52:29.318Z,19.77
2023-04-29T22:54:56.635Z,20.52
2023-04-29T22:57:23.961Z,21.95
2023-04-29T22:59:54.843Z,21.27
2023-04-29T23:02:27.523Z,19.40
2023-04-29T23:04:59.289Z,19.77
2023-04-29T23:07:26.734Z,18.75
2023-04-29T23:09:54.300Z,19.35
2023-04-29T23:12:22.284Z,19.02
2023-04-29T23:14:50.942Z,19.92
2023-04-29T23:17:18.325Z,18.42
2023-04-29T23:19:45.986Z,18.50
2023-04-29T23:22:13.366Z,19.05
2023-04-29T23:24:40.885Z,18.63
2023-04-29T23:27:08.094Z,18.25
2023-04-29T23:29:35.368Z,19.05
2023-04-29T23:32:03.221Z,18.80
2023-04-29T23:34:30.573Z,18.65
2023-04-29T23:36:57.767Z,19.05
2023-04-29T23:39:24.969Z,19.13
2023-04-29T23:41:52.315Z,19.25
2023-04-29T23:44:19.650Z,19.80
2023-04-29T23:46:46.900Z,18.77
2023-04-29T23:49:14.270Z,19.58
2023-04-29T23:51:41.549Z,20.38
2023-04-29T23:54:08.841Z,19.73
2023-04-29T23:56:36.102Z,20.98
2023-04-29T23:59:03.364Z,20.88
